Time;durP1;ratioP1;P1;durP2;ratioP2;P2;SDS_P1;SDS_P2;PMS_P1;PMS_P2;Temp;Humidity;BMP_temperature;BMP_pressure;BME280_temperature;BME280_humidity;BME280_pressure;Samples;Min_cycle;Max_cycle;Signal;HPM_P1;HPM_P2
2022/11/20 00:00:28;;;;;;;55.27;26.87;;;;;;;4.59;55.12;101495.88;5071057;28;20055;-73
2022/11/20 00:02:53;;;;;;;58.70;28.53;;;;;;;4.60;54.55;101493.03;5071372;28;20551;-73
2022/11/20 00:05:19;;;;;;;64.30;30.50;;;;;;;4.51;55.42;101490.56;5071860;28;20063;-73
2022/11/20 00:07:44;;;;;;;73.50;33.67;;;;;;;4.67;55.38;101490.53;5070252;28;20116;-74
2022/11/20 00:10:10;;;;;;;61.23;27.27;;;;;;;4.65;55.47;101484.56;5071261;28;20401;-73
2022/11/20 00:12:35;;;;;;;64.47;29.47;;;;;;;4.56;54.96;101482.94;5067414;28;20033;-74
2022/11/20 00:15:00;;;;;;;60.87;28.33;;;;;;;4.56;55.01;101481.06;5068056;28;20552;-74
2022/11/20 00:17:26;;;;;;;72.07;30.93;;;;;;;4.31;56.46;101474.16;5061614;28;20025;-74
2022/11/20 00:19:51;;;;;;;59.97;30.43;;;;;;;4.44;55.08;101472.63;5070515;28;20036;-74
2022/11/20 00:22:16;;;;;;;49.00;26.90;;;;;;;4.29;54.83;101463.69;5062861;28;20056;-74
2022/11/20 00:24:42;;;;;;;56.73;26.87;;;;;;;4.35;55.19;101465.66;5070336;28;20032;-73
2022/11/20 00:27:07;;;;;;;56.63;25.33;;;;;;;4.30;55.25;101462.66;5067582;28;20072;-72
2022/11/20 00:29:32;;;;;;;48.63;25.97;;;;;;;4.22;57.08;101453.91;5071101;28;20078;-73
2022/11/20 00:31:58;;;;;;;44.87;24.10;;;;;;;4.26;56.26;101452.56;5070700;28;20040;-72
2022/11/20 00:34:23;;;;;;;43.97;24.87;;;;;;;4.29;56.16;101455.72;5070624;28;20035;-73
2022/11/20 00:36:48;;;;;;;45.80;24.73;;;;;;;4.36;55.97;101451.34;5070325;28;20147;-74
2022/11/20 00:39:14;;;;;;;45.07;26.30;;;;;;;4.44;55.47;101453.19;5067757;28;20504;-73
2022/11/20 00:41:39;;;;;;;47.63;24.23;;;;;;;4.43;55.24;101455.00;5066533;28;20044;-73
2022/11/20 00:44:04;;;;;;;40.27;23.70;;;;;;;4.46;54.99;101459.16;5070765;28;20033;-73
2022/11/20 00:46:30;;;;;;;45.00;24.90;;;;;;;4.45;54.89;101463.66;5070337;28;20123;-73
2022/11/20 00:48:56;;;;;;;45.03;24.63;;;;;;;4.36;55.65;101466.50;5069776;28;20132;-74
2022/11/20 00:51:23;;;;;;;41.80;22.07;;;;;;;4.36;54.51;101467.31;5069141;28;20036;-73
2022/11/20 00:53:49;;;;;;;45.27;24.10;;;;;;;4.36;55.06;101464.66;5070375;28;20045;-74
2022/11/20 00:56:17;;;;;;;39.70;22.63;;;;;;;4.37;55.26;101465.50;5071642;28;20115;-73
2022/11/20 00:58:44;;;;;;;43.50;21.13;;;;;;;4.29;54.79;101461.03;5071083;28;20024;-73
2022/11/20 01:01:19;;;;;;;58.40;23.43;;;;;;;4.36;54.96;101463.84;5071265;28;20040;-74
2022/11/20 01:03:47;;;;;;;41.27;21.63;;;;;;;4.28;55.27;101458.53;5074807;28;20056;-73
2022/11/20 01:06:22;;;;;;;41.57;22.90;;;;;;;4.24;56.17;101452.75;5064498;28;20036;-74
2022/11/20 01:08:49;;;;;;;38.40;19.17;;;;;;;4.10;56.88;101448.09;5072518;28;20032;-74
2022/11/20 01:11:17;;;;;;;39.07;21.27;;;;;;;4.12;56.14;101450.59;5073098;28;20024;-73
2022/11/20 01:13:42;;;;;;;35.80;19.17;;;;;;;4.05;57.13;101460.25;5074566;28;20029;-73
2022/11/20 01:16:14;;;;;;;34.27;19.10;;;;;;;4.36;55.52;101450.53;5074974;28;20040;-73
2022/11/20 01:18:42;;;;;;;38.03;19.80;;;;;;;4.29;55.65;101454.88;5072161;28;20381;-73
2022/11/20 01:21:14;;;;;;;36.60;20.80;;;;;;;4.35;55.88;101451.53;5073814;28;20097;-74
2022/11/20 01:23:41;;;;;;;36.97;18.37;;;;;;;4.33;55.39;101453.53;5069973;28;20673;-74
2022/11/20 01:26:09;;;;;;;34.10;19.60;;;;;;;4.32;54.24;101452.69;5071457;28;20032;-74
2022/11/20 01:28:35;;;;;;;35.10;18.97;;;;;;;4.25;54.92;101456.19;5071225;28;20047;-74
2022/11/20 01:31:01;;;;;;;37.10;17.57;;;;;;;4.35;55.88;101448.88;5074566;28;20040;-73
2022/11/20 01:33:27;;;;;;;32.07;20.00;;;;;;;4.33;55.60;101440.22;5074622;28;20496;-73
2022/11/20 01:36:02;;;;;;;31.77;18.70;;;;;;;4.27;56.03;101441.75;5074531;28;20108;-74
2022/11/20 01:38:27;;;;;;;40.97;19.30;;;;;;;4.33;55.53;101430.44;5073346;28;20037;-75
2022/11/20 01:40:56;;;;;;;40.53;21.37;;;;;;;4.26;55.56;101432.13;5074631;28;20119;-74
2022/11/20 01:43:22;;;;;;;45.20;21.57;;;;;;;4.20;56.76;101431.97;5070999;28;20048;-75
2022/11/20 01:46:16;;;;;;;39.37;19.83;;;;;;;4.36;55.76;101431.94;5074835;28;20043;-74
2022/11/20 01:48:53;;;;;;;40.87;21.77;;;;;;;4.31;56.25;101423.59;5071790;28;20024;-74
2022/11/20 01:51:29;;;;;;;37.60;19.87;;;;;;;4.11;55.32;101424.97;5071836;28;20033;-74
2022/11/20 01:53:58;;;;;;;36.50;20.07;;;;;;;4.18;55.66;101425.97;5074037;28;20048;-73
2022/11/20 01:56:25;;;;;;;39.07;20.17;;;;;;;4.18;55.56;101425.97;5073946;28;20031;-74
2022/11/20 01:58:55;;;;;;;35.17;18.53;;;;;;;4.14;55.94;101425.50;5073523;28;20127;-74
2022/11/20 02:01:21;;;;;;;40.88;20.98;;;;;;;4.12;55.61;101429.31;5071244;28;20036;-74
2022/11/20 02:03:48;;;;;;;39.17;20.77;;;;;;;4.10;55.40;101429.50;5074079;28;20036;-72
2022/11/20 02:06:29;;;;;;;34.47;20.67;;;;;;;4.11;55.64;101422.31;5066827;28;20041;-74
2022/11/20 02:08:55;;;;;;;34.28;19.63;;;;;;;4.00;55.17;101420.84;5073406;28;20032;-73
2022/11/20 02:11:21;;;;;;;36.20;19.53;;;;;;;4.07;55.36;101415.69;5074122;28;20098;-74
2022/11/20 02:13:47;;;;;;;37.20;19.70;;;;;;;3.91;56.75;101413.06;5073275;28;20144;-73
2022/11/20 02:16:31;;;;;;;46.43;19.73;;;;;;;4.13;55.33;101407.03;5072152;28;20056;-73
2022/11/20 02:19:00;;;;;;;35.90;18.00;;;;;;;4.06;55.73;101398.91;5073381;28;20068;-73
2022/11/20 02:21:32;;;;;;;37.80;19.60;;;;;;;4.04;55.34;101397.41;5073682;28;20569;-74
2022/11/20 02:24:07;;;;;;;33.27;19.20;;;;;;;3.99;55.34;101389.13;5073176;28;20094;-76
2022/11/20 02:26:45;;;;;;;33.90;19.00;;;;;;;4.09;55.63;101390.56;5073790;28;20051;-73
2022/11/20 02:29:11;;;;;;;34.97;18.20;;;;;;;3.81;56.68;101385.81;5053765;28;20053;-73
2022/11/20 02:31:40;;;;;;;32.57;18.80;;;;;;;3.89;55.82;101391.13;5053684;28;20090;-72
2022/11/20 02:34:05;;;;;;;34.47;18.60;;;;;;;4.00;56.27;101391.59;5053087;28;20124;-75
2022/11/20 02:36:32;;;;;;;36.30;18.27;;;;;;;4.04;55.69;101392.94;5072641;28;20162;-73
2022/11/20 02:38:58;;;;;;;30.73;17.50;;;;;;;4.03;55.04;101401.88;5073737;28;20036;-73
2022/11/20 02:41:34;;;;;;;31.40;17.23;;;;;;;4.09;55.93;101401.22;5072800;28;20086;-74
2022/11/20 02:44:02;;;;;;;33.83;18.53;;;;;;;3.97;56.06;101396.44;5073525;28;20048;-74
2022/11/20 02:46:27;;;;;;;31.33;18.17;;;;;;;4.04;55.51;101394.75;5073511;28;20047;-74
2022/11/20 02:48:53;;;;;;;38.73;18.50;;;;;;;4.03;55.73;101407.22;5073549;28;20231;-74
2022/11/20 02:51:18;;;;;;;34.13;19.67;;;;;;;3.99;55.86;101405.06;5073327;28;20029;-73
2022/11/20 02:53:43;;;;;;;31.47;17.57;;;;;;;4.05;55.15;101402.56;5073536;28;20037;-73
2022/11/20 02:56:09;;;;;;;35.03;18.20;;;;;;;4.02;55.82;101388.78;5073555;28;20094;-74
2022/11/20 02:58:34;;;;;;;33.87;18.07;;;;;;;3.92;55.32;101390.78;5073359;28;20032;-73
2022/11/20 03:00:59;;;;;;;33.90;17.67;;;;;;;3.97;55.63;101383.94;5073146;28;20123;-74
2022/11/20 03:03:25;;;;;;;31.73;18.30;;;;;;;3.78;55.97;101394.94;5073582;28;20032;-73
2022/11/20 03:05:50;;;;;;;37.63;18.67;;;;;;;3.92;56.02;101393.44;5071059;28;20055;-73
2022/11/20 03:08:15;;;;;;;29.47;16.63;;;;;;;3.97;56.30;101391.94;5072083;28;20071;-73
2022/11/20 03:10:41;;;;;;;32.37;19.00;;;;;;;3.96;55.25;101395.59;5073212;28;20025;-73
2022/11/20 03:13:06;;;;;;;31.10;17.97;;;;;;;3.88;55.88;101390.28;5072436;28;20119;-75
2022/11/20 03:15:32;;;;;;;33.17;17.87;;;;;;;3.91;55.33;101391.78;5072497;28;20040;-73
2022/11/20 03:18:00;;;;;;;31.77;18.13;;;;;;;3.82;55.76;101393.63;5072717;28;20024;-72
2022/11/20 03:20:26;;;;;;;32.23;17.53;;;;;;;3.86;55.43;101391.44;5073679;28;20440;-73
2022/11/20 03:22:53;;;;;;;36.97;19.10;;;;;;;3.78;55.57;101384.31;5072748;28;20075;-73
2022/11/20 03:25:19;;;;;;;38.47;19.37;;;;;;;3.80;54.98;101379.66;5051996;28;20045;-73
2022/11/20 03:27:44;;;;;;;35.27;18.23;;;;;;;3.76;54.95;101377.50;5062634;28;20029;-73
2022/11/20 03:30:10;;;;;;;34.53;18.83;;;;;;;3.81;55.22;101378.69;5053643;28;20033;-74
2022/11/20 03:32:36;;;;;;;30.53;17.37;;;;;;;3.64;55.60;101366.41;5052875;28;20033;-74
2022/11/20 03:35:01;;;;;;;32.07;18.70;;;;;;;3.73;55.48;101367.22;5052444;28;20037;-73
2022/11/20 03:37:27;;;;;;;32.53;19.03;;;;;;;3.72;56.06;101365.56;5052474;28;20033;-73
2022/11/20 03:39:52;;;;;;;31.37;18.67;;;;;;;3.73;55.49;101361.91;5052455;28;20037;-72
2022/11/20 03:45:01;;;;;;;32.33;18.07;;;;;;;3.75;55.54;101359.91;5052459;28;20110;-73
2022/11/20 03:47:27;;;;;;;32.70;18.30;;;;;;;3.78;54.57;101359.56;5052618;28;20021;-73
2022/11/20 03:49:52;;;;;;;29.53;15.87;;;;;;;3.69;55.89;101348.13;5057196;28;20056;-73
2022/11/20 03:52:17;;;;;;;36.73;18.67;;;;;;;3.63;56.71;101353.28;5071542;28;20127;-74
2022/11/20 03:54:43;;;;;;;36.27;18.97;;;;;;;3.71;55.73;101342.66;5072423;28;20032;-73
2022/11/20 03:57:08;;;;;;;35.83;15.87;;;;;;;3.72;56.35;101338.97;5067908;28;20033;-72
2022/11/20 03:59:33;;;;;;;34.13;17.47;;;;;;;3.77;54.83;101348.13;5052454;28;20021;-74
2022/11/20 04:01:59;;;;;;;32.00;17.13;;;;;;;3.77;55.52;101344.63;5052154;28;20449;-73
2022/11/20 04:04:25;;;;;;;33.90;17.03;;;;;;;3.64;55.19;101342.47;5051981;28;20055;-73
2022/11/20 04:06:50;;;;;;;32.57;16.17;;;;;;;3.76;55.44;101343.78;5051907;28;20045;-73
2022/11/20 04:09:15;;;;;;;33.63;17.50;;;;;;;3.75;55.33;101342.16;5051321;28;20032;-73
2022/11/20 04:11:41;;;;;;;30.33;17.23;;;;;;;3.77;55.82;101349.94;5052718;28;20051;-75
2022/11/20 04:14:13;;;;;;;28.10;15.67;;;;;;;3.74;55.87;101348.44;5051795;28;20037;-73
2022/11/20 04:16:38;;;;;;;28.30;15.70;;;;;;;3.55;55.78;101333.72;5062339;28;20037;-73
2022/11/20 04:19:08;;;;;;;29.70;16.67;;;;;;;3.66;55.81;101344.97;5072312;28;20153;-73
2022/11/20 04:21:34;;;;;;;30.35;17.05;;;;;;;3.69;55.87;101342.81;5071921;28;20043;-74
2022/11/20 04:24:00;;;;;;;25.13;14.73;;;;;;;3.68;55.80;101332.34;5072284;28;20040;-73
2022/11/20 04:26:26;;;;;;;27.23;16.07;;;;;;;3.69;55.19;101332.19;5072570;28;20047;-73
2022/11/20 04:28:52;;;;;;;31.30;16.93;;;;;;;3.68;55.16;101330.50;5071591;28;20040;-73
2022/11/20 04:31:21;;;;;;;31.43;15.60;;;;;;;3.66;55.21;101329.00;5071330;28;20035;-74
2022/11/20 04:33:46;;;;;;;35.23;16.53;;;;;;;3.71;56.16;101327.53;5071755;28;20033;-74
2022/11/20 04:36:14;;;;;;;31.23;16.73;;;;;;;3.64;55.33;101326.53;5067634;28;20459;-73
2022/11/20 04:38:40;;;;;;;29.70;16.47;;;;;;;3.58;55.69;101327.19;5051639;28;20048;-73
2022/11/20 04:41:07;;;;;;;27.63;14.40;;;;;;;3.42;56.08;101333.38;5051322;28;20033;-74
2022/11/20 04:43:33;;;;;;;31.40;15.97;;;;;;;3.41;56.57;101325.56;5051305;28;20087;-74
2022/11/20 04:46:02;;;;;;;29.47;16.43;;;;;;;3.66;56.24;101334.34;5051722;28;20049;-74
2022/11/20 04:48:29;;;;;;;28.53;17.23;;;;;;;3.57;55.22;101325.56;5051115;28;20051;-75
2022/11/20 04:50:54;;;;;;;25.33;14.93;;;;;;;3.49;55.50;101320.25;5064319;28;20040;-73
2022/11/20 04:53:21;;;;;;;27.70;15.53;;;;;;;3.34;56.14;101314.78;5067734;28;20037;-73
2022/11/20 04:55:46;;;;;;;25.33;16.17;;;;;;;3.28;55.95;101311.97;5051607;28;20039;-73
2022/11/20 04:58:12;;;;;;;27.17;15.13;;;;;;;3.21;56.34;101310.97;5051636;28;20062;-74
2022/11/20 05:00:38;;;;;;;24.67;15.93;;;;;;;3.25;56.37;101309.63;5051000;28;20041;-74
2022/11/20 05:03:04;;;;;;;28.53;14.80;;;;;;;3.03;57.34;101311.13;5066461;28;20037;-74
2022/11/20 05:05:29;;;;;;;30.87;14.17;;;;;;;3.23;56.97;101295.69;5071379;28;20029;-73
2022/11/20 05:07:58;;;;;;;26.67;14.47;;;;;;;3.53;55.95;101297.66;5070714;28;20040;-74
2022/11/20 05:10:26;;;;;;;24.37;13.93;;;;;;;3.47;55.42;101299.19;5069178;28;20462;-74
2022/11/20 05:12:52;;;;;;;23.73;13.33;;;;;;;3.54;55.75;101305.47;5070740;28;20045;-74
2022/11/20 05:15:17;;;;;;;24.87;15.57;;;;;;;3.48;55.02;101302.63;5070634;28;20043;-74
2022/11/20 05:17:50;;;;;;;21.87;13.10;;;;;;;3.39;55.16;101301.84;5070401;28;20024;-74
2022/11/20 05:20:17;;;;;;;22.37;13.97;;;;;;;3.28;56.50;101304.00;5071380;28;20132;-74
2022/11/20 05:22:42;;;;;;;25.93;14.70;;;;;;;3.30;56.36;101302.00;5071440;28;20044;-74
2022/11/20 05:25:08;;;;;;;23.30;14.13;;;;;;;3.41;56.15;101302.50;5071321;28;20112;-74
2022/11/20 05:27:33;;;;;;;23.27;15.17;;;;;;;3.27;56.49;101307.66;5071270;28;20033;-73
2022/11/20 05:29:59;;;;;;;23.40;14.30;;;;;;;3.25;56.47;101305.16;5070368;28;20063;-74
2022/11/20 05:32:25;;;;;;;24.00;14.97;;;;;;;3.39;55.89;101301.84;5070167;28;20060;-73
2022/11/20 05:34:51;;;;;;;22.03;14.27;;;;;;;3.41;55.92;101299.84;5071160;28;20416;-73
2022/11/20 05:37:16;;;;;;;21.13;13.43;;;;;;;3.43;55.88;101300.50;5070971;28;20045;-73
2022/11/20 05:39:42;;;;;;;18.63;12.37;;;;;;;3.22;56.55;101299.34;5070869;28;20467;-73
2022/11/20 05:44:51;;;;;;;91.77;15.47;;;;;;;2.75;60.60;101301.81;5071112;28;20047;-72
2022/11/20 05:47:16;;;;;;;64.13;14.00;;;;;;;3.31;58.62;101299.19;5072182;28;20488;-73
2022/11/20 05:49:42;;;;;;;82.97;14.80;;;;;;;3.50;57.40;101296.16;5073070;28;20043;-74
2022/11/20 05:52:07;;;;;;;68.00;13.80;;;;;;;3.41;58.15;101297.19;5074278;28;20111;-74
2022/11/20 05:54:32;;;;;;;38.53;14.87;;;;;;;3.49;57.43;101291.88;5074894;28;20060;-75
2022/11/20 05:56:58;;;;;;;55.80;14.47;;;;;;;3.54;58.06;101294.00;5072870;28;20072;-73
2022/11/20 05:59:23;;;;;;;64.60;14.20;;;;;;;3.52;57.26;101285.38;5074996;28;20036;-74
2022/11/20 06:01:48;;;;;;;56.50;14.40;;;;;;;3.58;57.36;101284.69;5074335;28;20515;-74
2022/11/20 06:04:14;;;;;;;67.43;14.37;;;;;;;3.37;58.35;101293.22;5074343;28;20045;-73
2022/11/20 06:06:39;;;;;;;43.80;14.63;;;;;;;3.20;58.51;101293.38;5074169;28;20056;-73
2022/11/20 06:09:04;;;;;;;23.83;13.10;;;;;;;3.66;57.35;101295.31;5073623;28;20445;-74
2022/11/20 06:11:30;;;;;;;22.20;12.93;;;;;;;3.54;57.96;101294.00;5074563;28;20032;-73
2022/11/20 06:13:55;;;;;;;20.97;12.90;;;;;;;3.46;56.88;101291.34;5073901;28;20131;-73
2022/11/20 06:16:21;;;;;;;21.90;13.17;;;;;;;3.37;57.58;101287.06;5061970;28;20068;-73
2022/11/20 06:18:47;;;;;;;23.20;13.37;;;;;;;3.44;57.18;101290.69;5053673;28;20052;-74
2022/11/20 06:21:18;;;;;;;21.83;13.10;;;;;;;3.37;57.10;101287.06;5054265;28;20040;-74
2022/11/20 06:23:44;;;;;;;22.63;13.37;;;;;;;3.27;58.16;101286.41;5056538;28;20075;-74
2022/11/20 06:26:14;;;;;;;24.77;13.40;;;;;;;3.39;57.90;101290.38;5054318;28;20041;-73
2022/11/20 06:28:40;;;;;;;25.45;14.75;;;;;;;3.37;58.30;101293.22;5053793;28;20059;-73
2022/11/20 06:31:07;;;;;;;25.17;14.57;;;;;;;3.55;57.67;101288.53;5053357;28;20041;-73
2022/11/20 06:33:33;;;;;;;27.00;15.43;;;;;;;3.56;57.20;101286.69;5053806;28;20541;-73
2022/11/20 06:35:59;;;;;;;25.70;14.47;;;;;;;3.51;57.20;101283.72;5053633;28;20032;-73
2022/11/20 06:38:26;;;;;;;24.03;14.43;;;;;;;3.54;56.40;101288.69;5054235;28;20024;-73
2022/11/20 06:40:51;;;;;;;26.97;15.17;;;;;;;3.55;56.49;101283.22;5053961;28;20083;-73
2022/11/20 06:43:16;;;;;;;23.97;13.93;;;;;;;3.63;57.38;101287.69;5068824;28;20060;-74
2022/11/20 06:45:42;;;;;;;27.27;15.50;;;;;;;3.32;58.77;101295.50;5073249;28;20097;-73
2022/11/20 06:48:09;;;;;;;25.57;16.80;;;;;;;3.37;58.58;101289.72;5070773;28;20039;-76
2022/11/20 06:50:36;;;;;;;27.10;16.40;;;;;;;3.63;57.60;101294.81;5073342;28;20032;-73
2022/11/20 06:53:03;;;;;;;28.47;15.47;;;;;;;3.81;57.36;101298.94;5073224;28;20408;-75
2022/11/20 06:55:28;;;;;;;22.73;14.63;;;;;;;3.71;56.53;101292.16;5073083;28;20041;-74
2022/11/20 06:57:54;;;;;;;25.87;14.63;;;;;;;3.68;56.70;101289.81;5073203;28;20600;-74
2022/11/20 07:00:19;;;;;;;28.73;15.40;;;;;;;3.64;57.44;101301.81;5071777;28;20060;-74
2022/11/20 07:02:45;;;;;;;29.13;17.20;;;;;;;3.44;57.99;101307.47;5073287;28;20025;-72
2022/11/20 07:05:10;;;;;;;29.27;17.37;;;;;;;3.51;57.76;101303.16;5066291;28;20083;-76
2022/11/20 07:07:35;;;;;;;29.93;15.90;;;;;;;3.71;56.78;101316.06;5052302;28;20037;-74
2022/11/20 07:10:01;;;;;;;29.60;15.20;;;;;;;3.52;57.17;101311.94;5053095;28;20116;-74
2022/11/20 07:12:26;;;;;;;31.13;16.07;;;;;;;3.56;57.06;101310.59;5052767;28;20064;-74
2022/11/20 07:14:51;;;;;;;27.67;16.10;;;;;;;3.69;57.16;101305.63;5052527;28;20064;-74
2022/11/20 07:17:17;;;;;;;27.07;15.03;;;;;;;3.72;56.96;101305.25;5072617;28;20532;-74
2022/11/20 07:19:42;;;;;;;23.93;14.40;;;;;;;3.76;56.37;101300.44;5072511;28;20033;-74
2022/11/20 07:22:08;;;;;;;26.57;14.90;;;;;;;3.67;56.86;101302.28;5072596;28;20043;-74
2022/11/20 07:24:34;;;;;;;28.37;15.30;;;;;;;3.72;57.24;101301.78;5071758;28;20039;-74
2022/11/20 07:27:02;;;;;;;29.73;15.87;;;;;;;3.64;56.93;101296.50;5071219;28;20036;-74
2022/11/20 07:29:27;;;;;;;25.63;14.33;;;;;;;3.83;56.49;101288.97;5072822;28;20029;-76
2022/11/20 07:31:52;;;;;;;29.93;15.67;;;;;;;3.65;56.67;101298.97;5072533;28;20063;-73
2022/11/20 07:34:18;;;;;;;26.10;14.47;;;;;;;3.64;57.34;101288.53;5072287;28;20059;-73
2022/11/20 07:36:43;;;;;;;29.53;16.43;;;;;;;3.48;57.20;101287.53;5072230;28;20344;-74
2022/11/20 07:39:08;;;;;;;25.83;16.53;;;;;;;3.54;57.49;101286.03;5072247;28;20028;-73
2022/11/20 07:41:34;;;;;;;27.10;16.97;;;;;;;3.80;56.94;101275.16;5072334;28;20476;-75
2022/11/20 07:43:59;;;;;;;24.63;15.37;;;;;;;3.69;56.54;101280.88;5052378;28;20591;-74
2022/11/20 07:46:25;;;;;;;24.63;15.27;;;;;;;3.63;57.22;101271.75;5052327;28;20550;-74
2022/11/20 07:48:50;;;;;;;25.70;14.90;;;;;;;3.77;57.07;101271.06;5052062;28;20095;-74
2022/11/20 07:51:15;;;;;;;25.27;15.80;;;;;;;3.84;56.53;101271.19;5052013;28;20116;-76
2022/11/20 07:53:41;;;;;;;29.87;16.90;;;;;;;3.89;55.90;101274.97;5054522;28;20037;-76
2022/11/20 07:56:07;;;;;;;31.13;17.07;;;;;;;3.95;56.60;101274.28;5071482;28;20024;-75
2022/11/20 07:58:34;;;;;;;25.70;15.30;;;;;;;3.92;56.62;101271.16;5070286;28;20603;-74
2022/11/20 08:01:07;;;;;;;31.13;16.77;;;;;;;3.94;56.71;101269.16;5070222;28;20037;-73
2022/11/20 08:03:33;;;;;;;33.77;16.70;;;;;;;3.77;56.92;101267.56;5070470;28;20526;-74
2022/11/20 08:06:00;;;;;;;29.43;15.83;;;;;;;3.95;57.35;101261.00;5071148;28;20032;-74
2022/11/20 08:08:26;;;;;;;24.70;15.37;;;;;;;3.71;57.49;101261.09;5071225;28;20074;-73
2022/11/20 08:10:51;;;;;;;31.10;16.53;;;;;;;4.04;57.00;101262.66;5070346;28;20025;-74
2022/11/20 08:16:02;;;;;;;30.17;18.20;;;;;;;4.14;57.35;101262.44;5065378;28;20035;-73
2022/11/20 08:18:27;;;;;;;30.90;17.10;;;;;;;4.29;56.90;101269.50;5069691;28;20060;-73
2022/11/20 08:20:52;;;;;;;29.43;17.63;;;;;;;4.45;56.40;101265.91;5070172;28;20162;-74
2022/11/20 08:23:18;;;;;;;31.10;18.60;;;;;;;4.53;55.87;101265.88;5070394;28;20025;-72
2022/11/20 08:25:43;;;;;;;33.23;19.37;;;;;;;4.75;56.05;101251.75;5069697;28;20495;-73
2022/11/20 08:28:09;;;;;;;31.03;17.27;;;;;;;4.73;55.88;101245.78;5069255;28;20040;-73
2022/11/20 08:30:36;;;;;;;32.87;18.70;;;;;;;4.71;55.52;101241.63;5068906;28;20036;-74
2022/11/20 08:33:05;;;;;;;35.13;19.03;;;;;;;4.84;56.32;101233.88;5069381;28;20029;-73
2022/11/20 08:35:35;;;;;;;36.40;19.73;;;;;;;4.90;55.69;101238.50;5069740;28;20396;-73
2022/11/20 08:38:05;;;;;;;36.40;19.80;;;;;;;4.86;57.21;101230.03;5068660;28;20044;-73
2022/11/20 08:40:30;;;;;;;43.70;21.93;;;;;;;5.11;56.43;101233.34;5068812;28;20075;-73
2022/11/20 08:42:56;;;;;;;33.50;19.80;;;;;;;5.16;55.92;101226.47;5067440;28;20041;-73
2022/11/20 08:45:22;;;;;;;42.53;21.37;;;;;;;5.18;56.07;101223.59;5068514;28;20040;-74
2022/11/20 08:47:48;;;;;;;38.50;20.60;;;;;;;5.08;56.63;101223.88;5069496;28;20026;-72
2022/11/20 08:50:16;;;;;;;34.63;19.87;;;;;;;5.02;56.33;101226.41;5069260;28;20021;-73
2022/11/20 08:52:41;;;;;;;36.23;20.57;;;;;;;5.02;57.69;101229.06;5069387;28;20036;-73
2022/11/20 08:55:08;;;;;;;40.00;22.43;;;;;;;4.97;57.74;101234.13;5069907;28;20055;-72
2022/11/20 08:57:35;;;;;;;42.57;22.37;;;;;;;4.94;57.46;101235.31;5068960;28;20087;-72
2022/11/20 09:00:02;;;;;;;37.00;22.07;;;;;;;5.16;57.63;101228.28;5069410;28;20044;-73
2022/11/20 09:02:27;;;;;;;35.70;21.40;;;;;;;4.72;57.69;101222.81;5070351;28;20491;-74
2022/11/20 09:04:53;;;;;;;38.63;22.40;;;;;;;5.17;56.11;101220.09;5070067;28;20036;-75
2022/11/20 09:07:19;;;;;;;36.57;20.80;;;;;;;4.75;57.30;101224.31;5069545;28;20127;-73
2022/11/20 09:09:44;;;;;;;36.00;20.03;;;;;;;5.01;57.36;101222.91;5069698;28;20035;-75
2022/11/20 09:12:09;;;;;;;31.37;20.67;;;;;;;5.22;56.52;101219.56;5065282;28;20061;-73
2022/11/20 09:14:35;;;;;;;40.67;20.40;;;;;;;4.98;56.34;101219.78;5050145;28;20059;-74
2022/11/20 09:17:02;;;;;;;34.20;19.83;;;;;;;5.28;55.70;101219.69;5067135;28;20105;-76
2022/11/20 09:19:27;;;;;;;31.80;20.53;;;;;;;5.48;55.59;101216.47;5069646;28;20036;-73
2022/11/20 09:21:53;;;;;;;39.57;22.23;;;;;;;5.67;55.69;101211.44;5068516;28;20060;-73
2022/11/20 09:24:20;;;;;;;36.77;20.53;;;;;;;5.60;55.78;101217.69;5072596;28;20123;-72
2022/11/20 09:26:45;;;;;;;40.23;20.87;;;;;;;5.15;57.63;101205.34;5073280;28;20017;-75
2022/11/20 09:29:11;;;;;;;32.90;20.23;;;;;;;5.49;56.29;101210.97;5074331;28;20055;-74
2022/11/20 09:31:36;;;;;;;34.03;20.80;;;;;;;5.78;55.99;101200.28;5072888;28;20054;-72
2022/11/20 09:34:02;;;;;;;34.40;21.53;;;;;;;5.75;55.53;101199.84;5073519;28;20309;-72
2022/11/20 09:36:27;;;;;;;37.40;20.70;;;;;;;6.09;54.53;101198.25;5073444;28;20496;-74
2022/11/20 09:38:53;;;;;;;37.53;19.93;;;;;;;5.59;56.70;101210.69;5073007;28;20042;-73
2022/11/20 09:41:24;;;;;;;39.53;21.47;;;;;;;5.28;57.96;101202.88;5074053;28;20381;-72
2022/11/20 09:43:57;;;;;;;;;;;;;;;5.70;56.02;101199.59;5070816;28;20044;-74
2022/11/20 09:46:31;;;;;;;33.67;19.10;;;;;;;5.64;55.80;101193.13;5073184;28;19924;-72
2022/11/20 09:49:22;;;;;;;41.40;20.50;;;;;;;5.58;55.94;101196.53;5073799;28;20032;-73
2022/11/20 09:51:58;;;;;;;32.33;20.50;;;;;;;6.03;54.83;101180.31;5074516;28;20433;-73
2022/11/20 09:54:42;;;;;;;30.60;19.33;;;;;;;6.14;55.03;101174.53;5074322;28;20056;-74
2022/11/20 09:57:14;;;;;;;39.50;21.07;;;;;;;6.44;54.28;101185.94;5073518;28;20036;-73
2022/11/20 09:59:46;;;;;;;36.17;20.83;;;;;;;5.89;55.28;101183.88;5073943;28;20024;-72
2022/11/20 10:02:36;;;;;;;31.95;18.95;;;;;;;6.53;54.12;101178.59;5073040;28;20052;-72
2022/11/20 10:05:04;;;;;;;34.63;20.08;;;;;;;6.15;54.90;101175.34;5073002;28;20041;-74
2022/11/20 10:07:40;;;;;;;33.47;19.45;;;;;;;6.82;53.51;101176.63;5072975;28;20048;-73
2022/11/20 10:10:05;;;;;;;30.17;17.40;;;;;;;6.09;54.19;101170.78;5070705;28;20041;-71
2022/11/20 10:12:50;;;;;;;29.55;18.73;;;;;;;6.27;54.12;101170.34;5065353;28;20579;-73
2022/11/20 10:15:27;;;;;;;32.05;16.85;;;;;;;5.70;54.98;101171.06;5055780;28;20044;-72
2022/11/20 10:18:14;;;;;;;30.02;19.40;;;;;;;6.56;53.63;101168.41;5072549;28;20105;-73
2022/11/20 10:20:58;;;;;;;28.17;17.20;;;;;;;6.92;53.20;101165.59;5073460;28;20044;-72
2022/11/20 10:23:24;;;;;;;30.92;17.95;;;;;;;7.20;52.42;101158.44;5073198;28;20044;-73
2022/11/20 10:26:03;;;;;;;32.50;19.42;;;;;;;6.46;54.15;101154.53;5072151;28;20040;-73
2022/11/20 10:29:10;;;;;;;31.95;19.63;;;;;;;7.23;52.38;101154.53;5069718;28;20040;-73
2022/11/20 10:31:39;;;;;;;31.35;18.90;;;;;;;6.53;54.10;101157.25;5068307;28;20036;-74
2022/11/20 10:34:21;;;;;;;31.90;19.50;;;;;;;6.36;54.03;101155.84;5071117;28;20029;-73
2022/11/20 10:36:55;;;;;;;31.90;18.83;;;;;;;7.05;53.41;101152.38;5071555;28;20068;-71
2022/11/20 10:39:38;;;;;;;32.60;18.60;;;;;;;7.42;52.23;101146.66;5071398;28;20094;-73
2022/11/20 10:42:11;;;;;;;26.35;17.85;;;;;;;7.62;52.02;101136.88;5068782;28;20112;-73
2022/11/20 10:47:21;;;;;;;29.80;18.65;;;;;;;6.56;54.02;101128.34;5057147;28;20060;-71
2022/11/20 10:49:52;;;;;;;30.38;19.38;;;;;;;6.56;54.15;101136.34;5071402;28;20032;-71
2022/11/20 10:52:49;;;;;;;29.63;18.73;;;;;;;7.39;52.46;101130.97;5069860;28;20032;-71
2022/11/20 10:55:38;;;;;;;28.67;18.05;;;;;;;7.39;52.34;101124.84;5071005;28;20062;-70
2022/11/20 10:58:13;;;;;;;29.08;18.20;;;;;;;7.79;51.95;101127.47;5071093;28;20036;-72
2022/11/20 11:00:38;;;;;;;27.63;17.30;;;;;;;8.11;51.74;101133.16;5070267;28;20040;-71
2022/11/20 11:03:22;;;;;;;31.88;18.13;;;;;;;8.09;51.91;101135.19;5061479;28;20020;-71
2022/11/20 11:06:32;;;;;;;26.92;16.98;;;;;;;7.65;54.09;101122.25;5070676;28;20450;-72
2022/11/20 11:09:03;;;;;;;31.13;17.58;;;;;;;7.00;54.65;101130.72;5008110;28;20064;-72
2022/11/20 11:11:33;;;;;;;28.85;18.95;;;;;;;8.10;52.63;101120.81;5008969;28;20034;-72
2022/11/20 11:14:09;;;;;;;27.25;18.17;;;;;;;7.71;54.76;101116.97;5007589;28;20038;-71
2022/11/20 11:16:35;;;;;;;25.83;17.25;;;;;;;8.06;52.80;101115.00;5007368;28;20042;-73
2022/11/20 11:19:12;;;;;;;29.52;17.73;;;;;;;8.02;53.54;101109.22;5008087;28;20046;-75
2022/11/20 11:21:43;;;;;;;31.77;20.20;;;;;;;7.86;54.62;101103.44;5007985;28;20050;-72
2022/11/20 11:24:28;;;;;;;27.70;17.90;;;;;;;7.90;53.81;101102.00;5007710;28;20492;-73
2022/11/20 11:26:59;;;;;;;26.90;17.40;;;;;;;7.20;55.89;101088.94;5007683;28;20478;-74
2022/11/20 11:29:29;;;;;;;30.70;18.58;;;;;;;7.91;55.19;101085.75;5007413;28;20053;-73
2022/11/20 11:32:05;;;;;;;31.98;19.20;;;;;;;7.49;55.59;101083.31;5004110;28;20064;-73